sensor_id;sensor_type;location;lat;lon;timestamp;temperature;humidity
19734;DHT22;10018;51.230;7.860;2023-04-25T00:00:32;4.90;99.90
19734;DHT22;10018;51.230;7.860;2023-04-25T00:02:57;4.80;99.90
19734;DHT22;10018;51.230;7.860;2023-04-25T00:05:25;4.70;99.90
19734;DHT22;10018;51.230;7.860;2023-04-25T00:07:53;4.80;99.90
19734;DHT22;10018;51.230;7.860;2023-04-25T00:10:20;4.80;99.90
19734;DHT22;10018;51.230;7.860;2023-04-25T00:12:46;4.70;99.90
19734;DHT22;10018;51.230;7.860;2023-04-25T00:15:12;4.70;99.90
19734;DHT22;10018;51.230;7.860;2023-04-25T00:17:37;4.70;99.90
19734;DHT22;10018;51.230;7.860;2023-04-25T00:20:06;4.60;99.90
19734;DHT22;10018;51.230;7.860;2023-04-25T00:22:35;4.60;99.90
19734;DHT22;10018;51.230;7.860;2023-04-25T00:25:05;4.60;99.90
19734;DHT22;10018;51.230;7.860;2023-04-25T00:27:33;4.60;99.90
19734;DHT22;10018;51.230;7.860;2023-04-25T00:30:00;4.60;99.90
19734;DHT22;10018;51.230;7.860;2023-04-25T00:32:28;4.60;99.90
19734;DHT22;10018;51.230;7.860;2023-04-25T00:34:54;4.60;99.90
19734;DHT22;10018;51.230;7.860;2023-04-25T00:37:21;4.60;99.90
19734;DHT22;10018;51.230;7.860;2023-04-25T00:39:46;4.80;99.90
19734;DHT22;10018;51.230;7.860;2023-04-25T00:42:12;4.80;99.90
19734;DHT22;10018;51.230;7.860;2023-04-25T00:44:38;4.90;99.90
19734;DHT22;10018;51.230;7.860;2023-04-25T00:47:06;4.90;99.90
19734;DHT22;10018;51.230;7.860;2023-04-25T00:49:34;4.90;99.90
19734;DHT22;10018;51.230;7.860;2023-04-25T00:52:00;4.90;99.90
19734;DHT22;10018;51.230;7.860;2023-04-25T00:54:28;4.90;99.90
19734;DHT22;10018;51.230;7.860;2023-04-25T00:56:55;5.00;99.90
19734;DHT22;10018;51.230;7.860;2023-04-25T00:59:20;4.90;99.90
19734;DHT22;10018;51.230;7.860;2023-04-25T01:01:46;5.00;99.90
19734;DHT22;10018;51.230;7.860;2023-04-25T01:04:13;5.00;99.90
19734;DHT22;10018;51.230;7.860;2023-04-25T01:06:41;5.00;99.90
19734;DHT22;10018;51.230;7.860;2023-04-25T01:09:09;5.10;99.90
19734;DHT22;10018;51.230;7.860;2023-04-25T01:11:35;5.10;99.90
19734;DHT22;10018;51.230;7.860;2023-04-25T01:14:03;5.20;99.90
19734;DHT22;10018;51.230;7.860;2023-04-25T01:16:31;5.20;99.90
19734;DHT22;10018;51.230;7.860;2023-04-25T01:18:57;5.30;99.90
19734;DHT22;10018;51.230;7.860;2023-04-25T01:21:22;5.30;99.90
19734;DHT22;10018;51.230;7.860;2023-04-25T01:23:51;5.40;99.90
19734;DHT22;10018;51.230;7.860;2023-04-25T01:26:18;5.40;99.90
19734;DHT22;10018;51.230;7.860;2023-04-25T01:28:44;5.50;99.90
19734;DHT22;10018;51.230;7.860;2023-04-25T01:31:11;5.60;99.90
19734;DHT22;10018;51.230;7.860;2023-04-25T01:33:37;5.60;99.90
19734;DHT22;10018;51.230;7.860;2023-04-25T01:36:03;5.60;99.90
19734;DHT22;10018;51.230;7.860;2023-04-25T01:38:29;5.60;99.90
19734;DHT22;10018;51.230;7.860;2023-04-25T01:40:55;5.70;99.90
19734;DHT22;10018;51.230;7.860;2023-04-25T01:43:21;5.70;99.90
19734;DHT22;10018;51.230;7.860;2023-04-25T01:45:48;5.70;99.90
19734;DHT22;10018;51.230;7.860;2023-04-25T01:48:14;5.80;99.90
19734;DHT22;10018;51.230;7.860;2023-04-25T01:50:40;5.80;99.90
19734;DHT22;10018;51.230;7.860;2023-04-25T01:53:06;5.90;99.90
19734;DHT22;10018;51.230;7.860;2023-04-25T01:55:34;5.80;99.90
19734;DHT22;10018;51.230;7.860;2023-04-25T01:58:02;5.80;99.90
19734;DHT22;10018;51.230;7.860;2023-04-25T02:00:29;5.80;99.90
19734;DHT22;10018;51.230;7.860;2023-04-25T02:03:00;5.80;99.90
19734;DHT22;10018;51.230;7.860;2023-04-25T02:05:25;5.80;99.90
19734;DHT22;10018;51.230;7.860;2023-04-25T02:07:51;5.90;99.90
19734;DHT22;10018;51.230;7.860;2023-04-25T02:10:17;5.90;99.90
19734;DHT22;10018;51.230;7.860;2023-04-25T02:12:42;6.00;99.90
19734;DHT22;10018;51.230;7.860;2023-04-25T02:15:10;6.00;99.90
19734;DHT22;10018;51.230;7.860;2023-04-25T02:17:39;6.00;99.90
19734;DHT22;10018;51.230;7.860;2023-04-25T02:20:05;6.10;99.90
19734;DHT22;10018;51.230;7.860;2023-04-25T02:22:30;6.10;99.90
19734;DHT22;10018;51.230;7.860;2023-04-25T02:24:59;6.20;99.90
19734;DHT22;10018;51.230;7.860;2023-04-25T02:27:27;6.10;99.90
19734;DHT22;10018;51.230;7.860;2023-04-25T02:29:52;6.20;99.90
19734;DHT22;10018;51.230;7.860;2023-04-25T02:32:18;6.10;99.90
19734;DHT22;10018;51.230;7.860;2023-04-25T02:34:44;6.10;99.90
19734;DHT22;10018;51.230;7.860;2023-04-25T02:37:09;6.10;99.90
19734;DHT22;10018;51.230;7.860;2023-04-25T02:39:40;6.00;99.90
19734;DHT22;10018;51.230;7.860;2023-04-25T02:42:05;6.00;99.90
19734;DHT22;10018;51.230;7.860;2023-04-25T02:44:31;6.00;99.90
19734;DHT22;10018;51.230;7.860;2023-04-25T02:46:56;6.00;99.90
19734;DHT22;10018;51.230;7.860;2023-04-25T02:49:22;6.10;99.90
19734;DHT22;10018;51.230;7.860;2023-04-25T02:51:49;6.00;99.90
19734;DHT22;10018;51.230;7.860;2023-04-25T02:54:15;6.10;99.90
19734;DHT22;10018;51.230;7.860;2023-04-25T02:56:41;6.10;99.90
19734;DHT22;10018;51.230;7.860;2023-04-25T02:59:06;6.10;99.90
19734;DHT22;10018;51.230;7.860;2023-04-25T03:01:32;6.10;99.90
19734;DHT22;10018;51.230;7.860;2023-04-25T03:03:57;6.10;99.90
19734;DHT22;10018;51.230;7.860;2023-04-25T03:06:23;6.10;99.90
19734;DHT22;10018;51.230;7.860;2023-04-25T03:08:48;6.10;99.90
19734;DHT22;10018;51.230;7.860;2023-04-25T03:11:16;6.20;99.90
19734;DHT22;10018;51.230;7.860;2023-04-25T03:13:42;6.20;99.90
19734;DHT22;10018;51.230;7.860;2023-04-25T03:16:10;6.20;99.90
19734;DHT22;10018;51.230;7.860;2023-04-25T03:18:45;6.10;99.90
19734;DHT22;10018;51.230;7.860;2023-04-25T03:21:10;6.10;99.90
19734;DHT22;10018;51.230;7.860;2023-04-25T03:23:36;6.10;99.90
19734;DHT22;10018;51.230;7.860;2023-04-25T03:26:01;6.10;99.90
19734;DHT22;10018;51.230;7.860;2023-04-25T03:28:27;6.10;99.90
19734;DHT22;10018;51.230;7.860;2023-04-25T03:30:53;6.10;99.90
19734;DHT22;10018;51.230;7.860;2023-04-25T03:33:19;6.10;99.90
19734;DHT22;10018;51.230;7.860;2023-04-25T03:35:45;6.20;99.90
19734;DHT22;10018;51.230;7.860;2023-04-25T03:38:12;6.20;99.90
19734;DHT22;10018;51.230;7.860;2023-04-25T03:40:41;6.20;99.90
19734;DHT22;10018;51.230;7.860;2023-04-25T03:43:06;6.20;99.90
19734;DHT22;10018;51.230;7.860;2023-04-25T03:45:32;6.20;99.90
19734;DHT22;10018;51.230;7.860;2023-04-25T03:48:00;6.20;99.90
19734;DHT22;10018;51.230;7.860;2023-04-25T03:50:26;6.20;99.90
19734;DHT22;10018;51.230;7.860;2023-04-25T03:52:54;6.20;99.90
19734;DHT22;10018;51.230;7.860;2023-04-25T03:55:20;6.20;99.90
19734;DHT22;10018;51.230;7.860;2023-04-25T03:57:45;6.30;99.90
19734;DHT22;10018;51.230;7.860;2023-04-25T04:00:11;6.30;99.90
19734;DHT22;10018;51.230;7.860;2023-04-25T04:02:37;6.20;99.90
19734;DHT22;10018;51.230;7.860;2023-04-25T04:05:04;6.20;99.90
19734;DHT22;10018;51.230;7.860;2023-04-25T04:07:32;6.20;99.90
19734;DHT22;10018;51.230;7.860;2023-04-25T04:10:07;6.20;99.90
19734;DHT22;10018;51.230;7.860;2023-04-25T04:12:33;6.20;99.90
19734;DHT22;10018;51.230;7.860;2023-04-25T04:14:59;6.20;99.90
19734;DHT22;10018;51.230;7.860;2023-04-25T04:17:24;6.20;99.90
19734;DHT22;10018;51.230;7.860;2023-04-25T04:19:50;6.10;99.90
19734;DHT22;10018;51.230;7.860;2023-04-25T04:22:20;6.00;99.90
19734;DHT22;10018;51.230;7.860;2023-04-25T04:24:46;6.00;99.90
19734;DHT22;10018;51.230;7.860;2023-04-25T04:27:12;6.00;99.90
19734;DHT22;10018;51.230;7.860;2023-04-25T04:29:38;6.00;99.90
19734;DHT22;10018;51.230;7.860;2023-04-25T04:32:04;5.90;99.90
19734;DHT22;10018;51.230;7.860;2023-04-25T04:34:30;5.90;99.90
19734;DHT22;10018;51.230;7.860;2023-04-25T04:36:58;5.90;99.90
19734;DHT22;10018;51.230;7.860;2023-04-25T04:39:29;5.80;99.90
19734;DHT22;10018;51.230;7.860;2023-04-25T04:41:54;5.80;99.90
19734;DHT22;10018;51.230;7.860;2023-04-25T04:44:22;5.80;99.90
19734;DHT22;10018;51.230;7.860;2023-04-25T04:46:48;5.70;99.90
19734;DHT22;10018;51.230;7.860;2023-04-25T04:49:14;5.70;99.90
19734;DHT22;10018;51.230;7.860;2023-04-25T04:51:40;5.70;99.90
19734;DHT22;10018;51.230;7.860;2023-04-25T04:54:06;5.70;99.90
19734;DHT22;10018;51.230;7.860;2023-04-25T04:56:32;5.60;99.90
19734;DHT22;10018;51.230;7.860;2023-04-25T04:58:58;5.70;99.90
19734;DHT22;10018;51.230;7.860;2023-04-25T05:01:24;5.70;99.90
19734;DHT22;10018;51.230;7.860;2023-04-25T05:03:51;5.80;99.90
19734;DHT22;10018;51.230;7.860;2023-04-25T05:06:20;5.80;99.90
19734;DHT22;10018;51.230;7.860;2023-04-25T05:08:45;5.90;99.90
19734;DHT22;10018;51.230;7.860;2023-04-25T05:11:11;5.90;99.90
19734;DHT22;10018;51.230;7.860;2023-04-25T05:13:37;6.00;99.90
19734;DHT22;10018;51.230;7.860;2023-04-25T05:16:02;6.00;99.90
19734;DHT22;10018;51.230;7.860;2023-04-25T05:18:28;6.00;99.90
19734;DHT22;10018;51.230;7.860;2023-04-25T05:20:55;6.00;99.90
19734;DHT22;10018;51.230;7.860;2023-04-25T05:23:20;6.10;99.90
19734;DHT22;10018;51.230;7.860;2023-04-25T05:25:46;6.10;99.90
19734;DHT22;10018;51.230;7.860;2023-04-25T05:28:13;6.10;99.90
19734;DHT22;10018;51.230;7.860;2023-04-25T05:30:39;6.20;99.90
19734;DHT22;10018;51.230;7.860;2023-04-25T05:33:04;6.20;99.90
19734;DHT22;10018;51.230;7.860;2023-04-25T05:35:30;6.30;99.90
19734;DHT22;10018;51.230;7.860;2023-04-25T05:37:56;6.20;99.90
19734;DHT22;10018;51.230;7.860;2023-04-25T05:40:24;6.20;99.90
19734;DHT22;10018;51.230;7.860;2023-04-25T05:42:49;5.90;99.90
19734;DHT22;10018;51.230;7.860;2023-04-25T05:45:15;5.80;99.90
19734;DHT22;10018;51.230;7.860;2023-04-25T05:47:42;5.80;99.90
19734;DHT22;10018;51.230;7.860;2023-04-25T05:50:08;5.70;99.90
19734;DHT22;10018;51.230;7.860;2023-04-25T05:52:36;5.70;99.90
19734;DHT22;10018;51.230;7.860;2023-04-25T05:55:01;5.70;99.90
19734;DHT22;10018;51.230;7.860;2023-04-25T05:57:27;5.70;99.90
19734;DHT22;10018;51.230;7.860;2023-04-25T05:59:53;5.70;99.90
19734;DHT22;10018;51.230;7.860;2023-04-25T06:02:22;5.70;99.90
19734;DHT22;10018;51.230;7.860;2023-04-25T06:04:52;5.70;99.90
19734;DHT22;10018;51.230;7.860;2023-04-25T06:07:20;5.70;99.90
19734;DHT22;10018;51.230;7.860;2023-04-25T06:09:46;5.80;99.90
19734;DHT22;10018;51.230;7.860;2023-04-25T06:12:12;5.80;99.90
19734;DHT22;10018;51.230;7.860;2023-04-25T06:14:37;5.80;99.90
19734;DHT22;10018;51.230;7.860;2023-04-25T06:17:05;5.80;99.90
19734;DHT22;10018;51.230;7.860;2023-04-25T06:19:34;5.80;99.90
19734;DHT22;10018;51.230;7.860;2023-04-25T06:22:01;5.80;99.90
19734;DHT22;10018;51.230;7.860;2023-04-25T06:24:26;5.80;99.90
19734;DHT22;10018;51.230;7.860;2023-04-25T06:26:52;5.80;99.90
19734;DHT22;10018;51.230;7.860;2023-04-25T06:29:18;5.80;99.90
19734;DHT22;10018;51.230;7.860;2023-04-25T06:31:46;5.90;99.90
19734;DHT22;10018;51.230;7.860;2023-04-25T06:34:12;5.80;99.90
19734;DHT22;10018;51.230;7.860;2023-04-25T06:36:37;5.80;99.90
19734;DHT22;10018;51.230;7.860;2023-04-25T06:39:05;5.80;99.90
19734;DHT22;10018;51.230;7.860;2023-04-25T06:41:31;5.70;99.90
19734;DHT22;10018;51.230;7.860;2023-04-25T06:43:57;5.80;99.90
19734;DHT22;10018;51.230;7.860;2023-04-25T06:46:22;5.80;99.90
19734;DHT22;10018;51.230;7.860;2023-04-25T06:48:48;5.80;99.90
19734;DHT22;10018;51.230;7.860;2023-04-25T06:51:13;5.80;99.90
19734;DHT22;10018;51.230;7.860;2023-04-25T06:53:42;5.90;99.90
19734;DHT22;10018;51.230;7.860;2023-04-25T06:56:07;6.00;99.90
19734;DHT22;10018;51.230;7.860;2023-04-25T06:58:33;6.00;99.90
19734;DHT22;10018;51.230;7.860;2023-04-25T07:01:01;6.10;99.90
19734;DHT22;10018;51.230;7.860;2023-04-25T07:03:26;6.20;99.90
19734;DHT22;10018;51.230;7.860;2023-04-25T07:05:52;6.20;99.90
19734;DHT22;10018;51.230;7.860;2023-04-25T07:08:25;6.30;99.90
19734;DHT22;10018;51.230;7.860;2023-04-25T07:10:53;6.40;99.90
19734;DHT22;10018;51.230;7.860;2023-04-25T07:13:21;6.50;99.90
19734;DHT22;10018;51.230;7.860;2023-04-25T07:15:46;6.60;99.90
19734;DHT22;10018;51.230;7.860;2023-04-25T07:18:13;6.60;99.90
19734;DHT22;10018;51.230;7.860;2023-04-25T07:20:39;6.80;99.90
19734;DHT22;10018;51.230;7.860;2023-04-25T07:23:04;6.90;99.90
19734;DHT22;10018;51.230;7.860;2023-04-25T07:27:56;7.00;99.90
19734;DHT22;10018;51.230;7.860;2023-04-25T07:30:24;7.00;99.90
19734;DHT22;10018;51.230;7.860;2023-04-25T07:32:50;7.10;99.90
19734;DHT22;10018;51.230;7.860;2023-04-25T07:35:18;7.10;99.90
19734;DHT22;10018;51.230;7.860;2023-04-25T07:37:46;7.20;99.90
19734;DHT22;10018;51.230;7.860;2023-04-25T07:40:12;7.30;99.90
19734;DHT22;10018;51.230;7.860;2023-04-25T07:42:38;7.40;99.90
19734;DHT22;10018;51.230;7.860;2023-04-25T07:45:06;7.30;99.90
19734;DHT22;10018;51.230;7.860;2023-04-25T07:47:35;7.20;99.90
19734;DHT22;10018;51.230;7.860;2023-04-25T07:50:02;7.30;99.90
19734;DHT22;10018;51.230;7.860;2023-04-25T07:52:31;7.40;99.90
19734;DHT22;10018;51.230;7.860;2023-04-25T07:54:59;7.40;99.90
19734;DHT22;10018;51.230;7.860;2023-04-25T07:57:28;7.40;99.90
19734;DHT22;10018;51.230;7.860;2023-04-25T07:59:56;7.40;99.90
19734;DHT22;10018;51.230;7.860;2023-04-25T08:02:22;7.30;99.90
19734;DHT22;10018;51.230;7.860;2023-04-25T08:04:47;7.30;99.90
19734;DHT22;10018;51.230;7.860;2023-04-25T08:07:14;7.30;99.90
19734;DHT22;10018;51.230;7.860;2023-04-25T08:09:40;7.30;99.90
19734;DHT22;10018;51.230;7.860;2023-04-25T08:12:06;7.40;99.90
19734;DHT22;10018;51.230;7.860;2023-04-25T08:14:31;7.50;99.90
19734;DHT22;10018;51.230;7.860;2023-04-25T08:17:02;7.50;99.90
19734;DHT22;10018;51.230;7.860;2023-04-25T08:19:29;7.50;99.90
19734;DHT22;10018;51.230;7.860;2023-04-25T08:21:54;7.40;99.90
19734;DHT22;10018;51.230;7.860;2023-04-25T08:24:21;7.30;99.90
19734;DHT22;10018;51.230;7.860;2023-04-25T08:26:47;7.40;99.90
19734;DHT22;10018;51.230;7.860;2023-04-25T08:29:13;7.40;99.90
19734;DHT22;10018;51.230;7.860;2023-04-25T08:31:38;7.30;99.90
19734;DHT22;10018;51.230;7.860;2023-04-25T08:34:04;7.40;99.90
19734;DHT22;10018;51.230;7.860;2023-04-25T08:36:29;7.30;99.90
19734;DHT22;10018;51.230;7.860;2023-04-25T08:38:56;7.40;99.90
19734;DHT22;10018;51.230;7.860;2023-04-25T08:41:27;7.50;99.90
19734;DHT22;10018;51.230;7.860;2023-04-25T08:43:53;7.50;99.90
19734;DHT22;10018;51.230;7.860;2023-04-25T08:46:20;7.70;99.90
19734;DHT22;10018;51.230;7.860;2023-04-25T08:48:46;7.80;99.90
19734;DHT22;10018;51.230;7.860;2023-04-25T08:51:21;8.10;99.90
19734;DHT22;10018;51.230;7.860;2023-04-25T08:53:49;8.20;99.90
19734;DHT22;10018;51.230;7.860;2023-04-25T08:56:16;8.10;99.90
19734;DHT22;10018;51.230;7.860;2023-04-25T08:58:50;8.10;99.90
19734;DHT22;10018;51.230;7.860;2023-04-25T09:01:19;8.10;99.90
19734;DHT22;10018;51.230;7.860;2023-04-25T09:03:47;8.00;99.90
19734;DHT22;10018;51.230;7.860;2023-04-25T09:06:13;8.10;99.90
19734;DHT22;10018;51.230;7.860;2023-04-25T09:08:41;8.10;99.90
19734;DHT22;10018;51.230;7.860;2023-04-25T09:11:07;8.00;99.90
19734;DHT22;10018;51.230;7.860;2023-04-25T09:13:32;8.00;99.90
19734;DHT22;10018;51.230;7.860;2023-04-25T09:16:00;7.90;99.90
19734;DHT22;10018;51.230;7.860;2023-04-25T09:18:28;7.90;99.90
19734;DHT22;10018;51.230;7.860;2023-04-25T09:21:04;7.90;99.90
19734;DHT22;10018;51.230;7.860;2023-04-25T09:23:30;7.80;99.90
19734;DHT22;10018;51.230;7.860;2023-04-25T09:26:03;7.90;99.90
19734;DHT22;10018;51.230;7.860;2023-04-25T09:28:31;7.90;99.90
19734;DHT22;10018;51.230;7.860;2023-04-25T09:30:57;8.00;99.90
19734;DHT22;10018;51.230;7.860;2023-04-25T09:33:31;8.20;99.90
19734;DHT22;10018;51.230;7.860;2023-04-25T09:36:07;8.30;99.90
19734;DHT22;10018;51.230;7.860;2023-04-25T09:38:40;8.40;99.90
19734;DHT22;10018;51.230;7.860;2023-04-25T09:41:07;8.30;99.90
19734;DHT22;10018;51.230;7.860;2023-04-25T09:43:37;8.10;99.90
19734;DHT22;10018;51.230;7.860;2023-04-25T09:46:04;8.00;99.90
19734;DHT22;10018;51.230;7.860;2023-04-25T09:48:33;7.80;99.90
19734;DHT22;10018;51.230;7.860;2023-04-25T09:53:34;7.90;99.90
19734;DHT22;10018;51.230;7.860;2023-04-25T09:56:06;8.10;99.90
19734;DHT22;10018;51.230;7.860;2023-04-25T09:58:33;8.50;99.90
19734;DHT22;10018;51.230;7.860;2023-04-25T10:01:00;8.80;99.90
19734;DHT22;10018;51.230;7.860;2023-04-25T10:03:30;8.80;99.90
19734;DHT22;10018;51.230;7.860;2023-04-25T10:05:58;9.00;99.90
19734;DHT22;10018;51.230;7.860;2023-04-25T10:08:24;9.10;99.90
19734;DHT22;10018;51.230;7.860;2023-04-25T10:10:52;9.20;99.90
19734;DHT22;10018;51.230;7.860;2023-04-25T10:13:20;9.30;99.90
19734;DHT22;10018;51.230;7.860;2023-04-25T10:15:47;9.30;99.90
19734;DHT22;10018;51.230;7.860;2023-04-25T10:18:12;9.30;99.90
19734;DHT22;10018;51.230;7.860;2023-04-25T10:20:38;9.30;99.90
19734;DHT22;10018;51.230;7.860;2023-04-25T10:23:12;9.10;99.90
19734;DHT22;10018;51.230;7.860;2023-04-25T10:25:39;9.10;99.90
19734;DHT22;10018;51.230;7.860;2023-04-25T10:28:05;9.30;99.90
19734;DHT22;10018;51.230;7.860;2023-04-25T10:30:31;9.40;99.90
19734;DHT22;10018;51.230;7.860;2023-04-25T10:32:59;9.60;99.90
19734;DHT22;10018;51.230;7.860;2023-04-25T10:35:27;9.50;99.90
19734;DHT22;10018;51.230;7.860;2023-04-25T10:38:05;9.40;99.90
19734;DHT22;10018;51.230;7.860;2023-04-25T10:40:32;9.40;99.90
19734;DHT22;10018;51.230;7.860;2023-04-25T10:43:39;9.30;99.90
19734;DHT22;10018;51.230;7.860;2023-04-25T10:46:25;9.30;99.90
19734;DHT22;10018;51.230;7.860;2023-04-25T10:48:52;9.20;99.90
19734;DHT22;10018;51.230;7.860;2023-04-25T10:51:23;9.30;99.90
19734;DHT22;10018;51.230;7.860;2023-04-25T10:56:41;9.80;99.90
19734;DHT22;10018;51.230;7.860;2023-04-25T10:59:18;9.80;99.90
19734;DHT22;10018;51.230;7.860;2023-04-25T11:01:45;9.60;99.90
19734;DHT22;10018;51.230;7.860;2023-04-25T11:04:30;9.30;99.90
19734;DHT22;10018;51.230;7.860;2023-04-25T11:09:29;9.00;99.90
19734;DHT22;10018;51.230;7.860;2023-04-25T11:11:56;8.90;99.90
19734;DHT22;10018;51.230;7.860;2023-04-25T11:14:22;8.50;99.90
19734;DHT22;10018;51.230;7.860;2023-04-25T11:16:53;8.40;99.90
19734;DHT22;10018;51.230;7.860;2023-04-25T11:19:20;8.50;99.90
19734;DHT22;10018;51.230;7.860;2023-04-25T11:21:46;8.80;99.90
19734;DHT22;10018;51.230;7.860;2023-04-25T11:24:16;9.10;99.90
19734;DHT22;10018;51.230;7.860;2023-04-25T11:26:44;9.40;99.90
19734;DHT22;10018;51.230;7.860;2023-04-25T11:29:11;9.60;99.90
19734;DHT22;10018;51.230;7.860;2023-04-25T11:31:37;9.90;99.90
19734;DHT22;10018;51.230;7.860;2023-04-25T11:34:05;9.90;99.90
19734;DHT22;10018;51.230;7.860;2023-04-25T11:36:31;10.10;99.90
19734;DHT22;10018;51.230;7.860;2023-04-25T11:38:58;10.10;99.90
19734;DHT22;10018;51.230;7.860;2023-04-25T11:41:25;10.50;99.90
19734;DHT22;10018;51.230;7.860;2023-04-25T11:43:51;10.50;99.90
19734;DHT22;10018;51.230;7.860;2023-04-25T11:46:17;10.70;99.90
19734;DHT22;10018;51.230;7.860;2023-04-25T11:48:45;10.90;99.90
19734;DHT22;10018;51.230;7.860;2023-04-25T11:51:11;11.20;99.90
19734;DHT22;10018;51.230;7.860;2023-04-25T11:53:41;11.30;99.90
19734;DHT22;10018;51.230;7.860;2023-04-25T11:56:10;11.40;99.90
19734;DHT22;10018;51.230;7.860;2023-04-25T11:58:59;11.30;99.90
19734;DHT22;10018;51.230;7.860;2023-04-25T12:01:30;11.20;99.90
19734;DHT22;10018;51.230;7.860;2023-04-25T12:03:56;11.10;99.90
19734;DHT22;10018;51.230;7.860;2023-04-25T12:06:26;10.80;99.90
19734;DHT22;10018;51.230;7.860;2023-04-25T12:09:03;10.50;99.90
19734;DHT22;10018;51.230;7.860;2023-04-25T12:11:32;10.60;99.90
19734;DHT22;10018;51.230;7.860;2023-04-25T12:14:04;10.90;99.90
19734;DHT22;10018;51.230;7.860;2023-04-25T12:16:45;11.00;99.90
19734;DHT22;10018;51.230;7.860;2023-04-25T12:19:15;10.80;99.90
19734;DHT22;10018;51.230;7.860;2023-04-25T12:21:42;10.50;99.90
19734;DHT22;10018;51.230;7.860;2023-04-25T12:24:20;10.20;99.90
19734;DHT22;10018;51.230;7.860;2023-04-25T12:26:58;10.10;99.90
19734;DHT22;10018;51.230;7.860;2023-04-25T12:29:26;10.10;99.90
19734;DHT22;10018;51.230;7.860;2023-04-25T12:31:55;10.20;99.90
19734;DHT22;10018;51.230;7.860;2023-04-25T12:34:24;10.40;99.90
19734;DHT22;10018;51.230;7.860;2023-04-25T12:36:50;10.20;99.90
19734;DHT22;10018;51.230;7.860;2023-04-25T12:39:24;10.40;99.90
19734;DHT22;10018;51.230;7.860;2023-04-25T12:41:53;10.20;99.90
19734;DHT22;10018;51.230;7.860;2023-04-25T12:44:21;9.90;99.90
19734;DHT22;10018;51.230;7.860;2023-04-25T12:46:48;9.70;99.90
19734;DHT22;10018;51.230;7.860;2023-04-25T12:49:14;9.80;99.90
19734;DHT22;10018;51.230;7.860;2023-04-25T12:51:40;10.00;99.90
19734;DHT22;10018;51.230;7.860;2023-04-25T12:54:07;10.40;99.90
19734;DHT22;10018;51.230;7.860;2023-04-25T12:56:34;10.60;99.90
19734;DHT22;10018;51.230;7.860;2023-04-25T12:58:59;10.60;99.90
19734;DHT22;10018;51.230;7.860;2023-04-25T13:01:25;10.40;99.90
19734;DHT22;10018;51.230;7.860;2023-04-25T13:03:52;10.30;99.90
19734;DHT22;10018;51.230;7.860;2023-04-25T13:06:19;10.00;99.90
19734;DHT22;10018;51.230;7.860;2023-04-25T13:08:45;10.10;99.90
19734;DHT22;10018;51.230;7.860;2023-04-25T13:11:11;10.10;99.90
19734;DHT22;10018;51.230;7.860;2023-04-25T13:13:37;10.10;99.90
19734;DHT22;10018;51.230;7.860;2023-04-25T13:16:03;10.00;99.90
19734;DHT22;10018;51.230;7.860;2023-04-25T13:18:30;10.10;99.90
19734;DHT22;10018;51.230;7.860;2023-04-25T13:20:56;10.30;99.90
19734;DHT22;10018;51.230;7.860;2023-04-25T13:23:22;10.50;99.90
19734;DHT22;10018;51.230;7.860;2023-04-25T13:25:48;10.60;99.90
19734;DHT22;10018;51.230;7.860;2023-04-25T13:28:14;10.80;99.90
19734;DHT22;10018;51.230;7.860;2023-04-25T13:30:40;11.00;99.90
19734;DHT22;10018;51.230;7.860;2023-04-25T13:33:06;11.10;99.90
19734;DHT22;10018;51.230;7.860;2023-04-25T13:35:34;11.20;99.90
19734;DHT22;10018;51.230;7.860;2023-04-25T13:38:00;11.10;99.90
19734;DHT22;10018;51.230;7.860;2023-04-25T13:40:26;11.00;99.90
19734;DHT22;10018;51.230;7.860;2023-04-25T13:42:52;11.30;99.90
19734;DHT22;10018;51.230;7.860;2023-04-25T13:45:19;11.50;99.90
19734;DHT22;10018;51.230;7.860;2023-04-25T13:47:45;11.30;99.90
19734;DHT22;10018;51.230;7.860;2023-04-25T13:50:10;11.00;99.90
19734;DHT22;10018;51.230;7.860;2023-04-25T13:52:36;11.10;99.90
19734;DHT22;10018;51.230;7.860;2023-04-25T13:55:02;11.10;99.90
19734;DHT22;10018;51.230;7.860;2023-04-25T13:57:31;11.20;99.90
19734;DHT22;10018;51.230;7.860;2023-04-25T14:00:00;11.10;99.90
19734;DHT22;10018;51.230;7.860;2023-04-25T14:02:30;11.10;99.90
19734;DHT22;10018;51.230;7.860;2023-04-25T14:04:55;11.00;99.90
19734;DHT22;10018;51.230;7.860;2023-04-25T14:07:24;11.10;99.90
19734;DHT22;10018;51.230;7.860;2023-04-25T14:09:50;11.10;99.90
19734;DHT22;10018;51.230;7.860;2023-04-25T14:12:16;11.00;99.90
19734;DHT22;10018;51.230;7.860;2023-04-25T14:14:41;10.90;99.90
19734;DHT22;10018;51.230;7.860;2023-04-25T14:17:09;10.70;99.90
19734;DHT22;10018;51.230;7.860;2023-04-25T14:19:35;10.70;99.90
19734;DHT22;10018;51.230;7.860;2023-04-25T14:22:02;11.00;99.90
19734;DHT22;10018;51.230;7.860;2023-04-25T14:24:28;11.10;99.90
19734;DHT22;10018;51.230;7.860;2023-04-25T14:26:54;11.20;99.90
19734;DHT22;10018;51.230;7.860;2023-04-25T14:29:19;10.90;99.90
19734;DHT22;10018;51.230;7.860;2023-04-25T14:31:45;10.70;99.90
19734;DHT22;10018;51.230;7.860;2023-04-25T14:34:10;10.60;99.90
19734;DHT22;10018;51.230;7.860;2023-04-25T14:36:36;10.10;99.90
19734;DHT22;10018;51.230;7.860;2023-04-25T14:39:02;9.80;99.90
19734;DHT22;10018;51.230;7.860;2023-04-25T14:41:28;9.70;99.90
19734;DHT22;10018;51.230;7.860;2023-04-25T14:43:54;9.40;99.90
19734;DHT22;10018;51.230;7.860;2023-04-25T14:46:20;9.30;99.90
19734;DHT22;10018;51.230;7.860;2023-04-25T14:48:49;9.10;99.90
19734;DHT22;10018;51.230;7.860;2023-04-25T14:51:15;9.00;99.90
19734;DHT22;10018;51.230;7.860;2023-04-25T14:53:41;8.90;99.90
19734;DHT22;10018;51.230;7.860;2023-04-25T14:56:09;8.80;99.90
19734;DHT22;10018;51.230;7.860;2023-04-25T14:58:35;8.80;99.90
19734;DHT22;10018;51.230;7.860;2023-04-25T15:01:00;8.80;99.90
19734;DHT22;10018;51.230;7.860;2023-04-25T15:03:26;8.80;99.90
19734;DHT22;10018;51.230;7.860;2023-04-25T15:05:54;9.00;99.90
19734;DHT22;10018;51.230;7.860;2023-04-25T15:08:20;9.00;99.90
19734;DHT22;10018;51.230;7.860;2023-04-25T15:10:46;9.20;99.90
19734;DHT22;10018;51.230;7.860;2023-04-25T15:13:12;9.50;99.90
19734;DHT22;10018;51.230;7.860;2023-04-25T15:15:40;9.70;99.90
19734;DHT22;10018;51.230;7.860;2023-04-25T15:18:05;9.80;99.90
19734;DHT22;10018;51.230;7.860;2023-04-25T15:20:36;9.80;99.90
19734;DHT22;10018;51.230;7.860;2023-04-25T15:23:02;9.90;99.90
19734;DHT22;10018;51.230;7.860;2023-04-25T15:25:28;9.90;99.90
19734;DHT22;10018;51.230;7.860;2023-04-25T15:27:54;9.80;99.90
19734;DHT22;10018;51.230;7.860;2023-04-25T15:30:23;9.80;99.90
19734;DHT22;10018;51.230;7.860;2023-04-25T15:32:50;9.90;99.90
19734;DHT22;10018;51.230;7.860;2023-04-25T15:35:16;9.70;99.90
19734;DHT22;10018;51.230;7.860;2023-04-25T15:37:42;9.70;99.90
19734;DHT22;10018;51.230;7.860;2023-04-25T15:40:13;9.80;99.90
19734;DHT22;10018;51.230;7.860;2023-04-25T15:42:42;9.80;99.90
19734;DHT22;10018;51.230;7.860;2023-04-25T15:45:09;9.90;99.90
19734;DHT22;10018;51.230;7.860;2023-04-25T15:47:36;10.10;99.90
19734;DHT22;10018;51.230;7.860;2023-04-25T15:50:03;10.20;99.90
19734;DHT22;10018;51.230;7.860;2023-04-25T15:52:33;10.30;99.90